Historyczne dane pomiarowe

Dodano dane terminowe – wersja testowa.

Dane z okresu 1951-2019

Wersja bazy: 1.34 [2019-03-16, lista zmian], aktualizacja planowana na 2019-04-15

Dane meteo z obszaru Polski uzyskane na podstawie danych udostępnionych przez Instytut Meteorologii i Gospodarki Wodnej – Państwowy Instytut Badawczy.

 

Wybierz Datę:    

       

TemperaturaWilgotnośćWiatrCiśnienieOpadyŚniegCzas trwania zjawisk
 Stacja t tx tn tng RH VA  wxwx mslp ppp RRR   cm mm wxwxwxwxwxwxwx
1994-08-14 15.0 18.6 12.0 10.3 69.5- 6.3 2.7---- 0.0------------
1994-08-13 17.3 23.2 14.6 12.3 86.0- 7.0 1.7---- 1.8------------
1994-08-12 16.9 19.9 15.9 14.6 93.3- 7.7 0.7---- 0.0------------
1994-08-11 17.7 22.7 13.5 10.3 88.3- 7.7 1.0---- 7.6------------
1994-08-10 20.2 25.7 16.6 15.8 76.3- 5.3 2.0---- 0.1------------
1994-08-09 19.3 24.6 16.7 15.8 92.0- 8.0 2.3---- 35.5------------
1994-08-08 20.8 26.5 17.6 14.1 84.8- 6.7 0.3---- 0.0------------
1994-08-07 24.4 30.9 17.5 13.8 63.3- 6.0 1.3---- 4.5------------
1994-08-06 25.3 32.6 16.1 12.3 55.8- 1.7 0.7---- 0.0------------
1994-08-05 24.5 32.6 16.1 13.3 64.0- 5.3 0.0---- 0.0------------
1994-08-04 22.2 28.8 17.5 14.3 80.0- 4.0 1.7---- 1.5------------
1994-08-03 24.8 30.5 17.5 14.3 62.0- 2.7 2.3---- 0.0------------
1994-08-02 26.9 32.5 20.1 16.8 51.0- 5.7 0.3---- 0.0------------
1994-08-01 27.2 35.0 17.6 16.3 54.5- 2.0 1.0---- 0.0------------
1994-07-31 27.1 35.7 17.4 14.5 52.0- 1.7 0.0---- 0.0------------
1994-07-30 26.8 34.9 16.6 13.3 60.8- 0.7 0.0---- 0.0------------
1994-07-29 25.9 34.8 15.8 12.2 50.3- 2.7 0.0---- 0.0------------
1994-07-28 26.4 34.0 16.4 12.8 49.5- 2.3 0.3---- 0.0------------
1994-07-27 25.7 34.1 16.1 11.5 50.3- 4.3 0.7---- 0.0------------
1994-07-26 24.7 33.6 15.8 13.1 58.5- 3.0 0.7---- 0.0------------
1994-07-25 24.6 32.0 14.5 11.3 53.8- 4.0 0.0---- 0.0------------
1994-07-24 23.0 30.5 12.8 9.8 57.3- 3.3 0.0---- 0.0------------
1994-07-23 22.4 28.8 13.5 10.3 59.0- 3.7 0.7---- 0.0------------
1994-07-22 20.8 26.5 13.9 8.8 57.8- 2.0 2.0---- 0.0------------
1994-07-21 20.7 27.0 10.5 6.7 60.0- 0.7 0.0---- 0.0------------
1994-07-20 18.4 24.1 10.0 6.2 59.8- 1.7 0.3---- 0.0------------
1994-07-19 19.6 23.9 14.0 12.2 64.0- 4.3 3.0---- 0.0------------
1994-07-18 20.5 25.3 18.5 16.3 84.3- 7.7 0.7---- 12.8------------
1994-07-17 23.0 28.5 18.1 14.8 71.0- 7.3 1.0---- 0.0------------
1994-07-16 25.2 31.6 14.8 10.8 50.5- 5.7 0.3---- 0.0------------
1994-07-15 24.7 29.4 17.7 13.6 64.5- 3.3 1.7---- 0.0------------
1994-07-14 24.2 30.5 17.6 13.3 65.8- 6.3 1.3---- 0.0------------
1994-07-13 24.4 30.5 15.6 10.2 54.3- 4.0 1.0---- 0.0------------
1994-07-12 23.6 29.7 15.6 11.3 63.0- 2.0 1.3---- 0.0------------
1994-07-11 19.5 25.0 13.3 10.3 77.3- 6.3 2.0---- 0.0------------
1994-07-10 17.6 25.1 11.5 10.4 82.3- 6.7 0.3---- 0.1------------
1994-07-09 15.0 17.9 12.4 9.3 82.5- 7.3 1.3---- 0.1------------
1994-07-08 17.6 23.6 15.9 12.2 75.8- 6.7 1.3---- 3.9------------
1994-07-07 21.4 27.1 13.8 7.8 57.5- 4.7 0.7---- 2.8------------
1994-07-06 19.5 25.4 12.5 8.3 58.8- 3.7 0.0---- 0.0------------
1994-07-05 20.2 25.9 11.9 6.3 59.8- 5.3 2.0---- 0.0------------
1994-07-04 20.6 26.1 11.0 6.3 59.5- 0.7 1.3---- 0.0------------
1994-07-03 19.6 25.1 9.9 5.4 60.3- 4.0 0.3---- 0.0------------
1994-07-02 18.3 23.3 11.8 7.3 63.8- 0.3 2.0---- 0.0------------
1994-07-01 18.8 22.4 12.5 7.7 60.0- 5.0 2.3---- 0.0------------
1994-06-30 21.7 27.4 17.6 13.4 81.0- 6.7 1.3---- 3.2------------
1994-06-29 24.7 29.7 16.1 11.8 65.5- 0.0 1.0---- 0.0------------
1994-06-28 23.8 28.2 17.4 13.4 64.5- 1.7 0.7---- 0.0------------
1994-06-27 24.9 31.0 17.6 15.6 60.5- 5.0 2.0---- 0.0------------
1994-06-26 21.5 29.2 11.9 6.8 59.8- 1.0 2.0---- 0.0------------
1994-06-25 15.9 22.1 6.1 2.4 65.8- 1.7 2.0---- 0.0------------
1994-06-24 14.7 18.8 8.6 5.3 54.3- 3.7 4.7---- 0.0------------
1994-06-23 17.7 22.8 16.1 14.2 50.0- 2.7 9.3---- 0.0------------
1994-06-22 18.6 25.7 9.0 5.9 67.0- 6.3 3.0---- 0.0------------
1994-06-21 15.1 20.1 7.0 3.6 65.8- 6.3 1.0---- 0.0------------
1994-06-20 17.0 19.4 14.0 12.3 61.5- 5.0 4.0---- 0.0------------
1994-06-19 15.6 21.2 11.1 10.3 80.0- 7.3 1.0---- 0.2------------
1994-06-18 13.4 18.8 4.8 2.4 59.8- 7.0 2.0---- 4.9------------
1994-06-17 11.9 15.4 9.0 8.3 63.5- 6.7 3.3---- 1.4------------
1994-06-16 12.0 15.9 6.9 3.4 71.0- 7.3 1.3---- 0.8------------
214.7 ms

 

Źródłem pochodzenia danych jest Instytut Meteorologii i Gospodarki Wodnej – Państwowy Instytut Badawczy. Dane Instytutu Meteorologii i Gospodarki Wodnej – Państwowego Instytutu Badawczego zostały przetworzone.

Dane źródłowe można odnaleźć na stronie https://dane.imgw.pl